Ross, Texas
Current Conditions -  °F | °C
As of 1:51 PM on Wednesday 26 Nov 2014 (Local Time) from KACT Reporting Station
Clear Clear  
Wind Chill: 21°   Ceiling: Unl
Heat Index: 21°   Visibility: 10mi
Dew Point: -2°   Wind: 10mph
Humidity: 22%   Direction: 360°N
Pressure: 30.15"   Gusts: NA
Location:  31.72°N, 97.12°W
Report Text: KACT 261951Z 36009KT 10SM CLR 21/M02 A3015 RMK AO2 SLP207 T02061022
Loading
Personal Weather Stations






























Interactive Weather Map New forecast layout! Learn more

10-Day Weather Forecast

Advertisements
Track Severe Weather on mobile